sensor_id;sensor_type;location;lat;lon;timestamp;P1;durP1;ratioP1;P2;durP2;ratioP2
25549;SDS011;13444;50.562;7.262;2023-05-14T00:00:12;6.07;;;4.13;;
25549;SDS011;13444;50.562;7.262;2023-05-14T00:02:38;4.97;;;4.22;;
25549;SDS011;13444;50.562;7.262;2023-05-14T00:05:04;6.03;;;4.13;;
25549;SDS011;13444;50.562;7.262;2023-05-14T00:07:30;8.45;;;4.03;;
25549;SDS011;13444;50.562;7.262;2023-05-14T00:09:56;7.15;;;4.65;;
25549;SDS011;13444;50.562;7.262;2023-05-14T00:12:22;5.47;;;3.72;;
25549;SDS011;13444;50.562;7.262;2023-05-14T00:14:48;6.60;;;4.00;;
25549;SDS011;13444;50.562;7.262;2023-05-14T00:17:13;6.43;;;3.75;;
25549;SDS011;13444;50.562;7.262;2023-05-14T00:19:38;5.13;;;3.95;;
25549;SDS011;13444;50.562;7.262;2023-05-14T00:22:06;4.65;;;3.67;;
25549;SDS011;13444;50.562;7.262;2023-05-14T00:24:32;10.85;;;3.88;;
25549;SDS011;13444;50.562;7.262;2023-05-14T00:26:58;4.63;;;4.10;;
25549;SDS011;13444;50.562;7.262;2023-05-14T00:29:24;4.90;;;3.90;;
25549;SDS011;13444;50.562;7.262;2023-05-14T00:31:49;5.88;;;4.10;;
25549;SDS011;13444;50.562;7.262;2023-05-14T00:34:15;5.82;;;4.20;;
25549;SDS011;13444;50.562;7.262;2023-05-14T00:36:40;4.60;;;4.03;;
25549;SDS011;13444;50.562;7.262;2023-05-14T00:39:06;7.55;;;4.07;;
25549;SDS011;13444;50.562;7.262;2023-05-14T00:41:31;7.53;;;3.92;;
25549;SDS011;13444;50.562;7.262;2023-05-14T00:43:57;6.65;;;4.32;;
25549;SDS011;13444;50.562;7.262;2023-05-14T00:46:22;4.28;;;3.85;;
25549;SDS011;13444;50.562;7.262;2023-05-14T00:48:48;4.95;;;3.60;;
25549;SDS011;13444;50.562;7.262;2023-05-14T00:51:14;6.50;;;4.50;;
25549;SDS011;13444;50.562;7.262;2023-05-14T00:53:40;5.65;;;5.00;;
25549;SDS011;13444;50.562;7.262;2023-05-14T00:56:06;6.00;;;4.88;;
25549;SDS011;13444;50.562;7.262;2023-05-14T00:58:32;6.45;;;5.22;;
25549;SDS011;13444;50.562;7.262;2023-05-14T01:00:58;9.57;;;5.45;;
25549;SDS011;13444;50.562;7.262;2023-05-14T01:03:24;5.47;;;4.97;;
25549;SDS011;13444;50.562;7.262;2023-05-14T01:05:58;7.68;;;4.85;;
25549;SDS011;13444;50.562;7.262;2023-05-14T01:11:24;8.52;;;5.28;;
25549;SDS011;13444;50.562;7.262;2023-05-14T01:16:55;7.35;;;5.43;;
25549;SDS011;13444;50.562;7.262;2023-05-14T01:19:28;9.13;;;6.43;;
25549;SDS011;13444;50.562;7.262;2023-05-14T01:21:57;9.98;;;6.53;;
25549;SDS011;13444;50.562;7.262;2023-05-14T01:24:23;10.95;;;6.40;;
25549;SDS011;13444;50.562;7.262;2023-05-14T01:26:48;7.28;;;5.78;;
25549;SDS011;13444;50.562;7.262;2023-05-14T01:29:21;9.45;;;5.95;;
25549;SDS011;13444;50.562;7.262;2023-05-14T01:31:48;10.18;;;6.32;;
25549;SDS011;13444;50.562;7.262;2023-05-14T01:34:15;11.23;;;7.63;;
25549;SDS011;13444;50.562;7.262;2023-05-14T01:36:45;13.93;;;7.53;;
25549;SDS011;13444;50.562;7.262;2023-05-14T01:39:12;13.40;;;7.97;;
25549;SDS011;13444;50.562;7.262;2023-05-14T01:41:39;14.18;;;7.00;;
25549;SDS011;13444;50.562;7.262;2023-05-14T01:44:07;12.93;;;6.82;;
25549;SDS011;13444;50.562;7.262;2023-05-14T01:46:33;9.77;;;7.47;;
25549;SDS011;13444;50.562;7.262;2023-05-14T01:48:59;13.20;;;7.15;;
25549;SDS011;13444;50.562;7.262;2023-05-14T01:51:25;15.88;;;7.78;;
25549;SDS011;13444;50.562;7.262;2023-05-14T01:53:51;13.57;;;7.45;;
25549;SDS011;13444;50.562;7.262;2023-05-14T01:56:17;12.05;;;8.75;;
25549;SDS011;13444;50.562;7.262;2023-05-14T01:58:43;12.10;;;7.90;;
25549;SDS011;13444;50.562;7.262;2023-05-14T02:01:09;15.73;;;8.45;;
25549;SDS011;13444;50.562;7.262;2023-05-14T02:03:34;12.82;;;8.13;;
25549;SDS011;13444;50.562;7.262;2023-05-14T02:06:00;11.15;;;8.15;;
25549;SDS011;13444;50.562;7.262;2023-05-14T02:08:25;14.40;;;9.60;;
25549;SDS011;13444;50.562;7.262;2023-05-14T02:10:51;14.13;;;9.43;;
25549;SDS011;13444;50.562;7.262;2023-05-14T02:13:16;17.10;;;9.68;;
25549;SDS011;13444;50.562;7.262;2023-05-14T02:15:42;18.88;;;9.60;;
25549;SDS011;13444;50.562;7.262;2023-05-14T02:18:07;10.70;;;8.98;;
25549;SDS011;13444;50.562;7.262;2023-05-14T02:20:33;12.18;;;8.80;;
25549;SDS011;13444;50.562;7.262;2023-05-14T02:22:58;17.60;;;9.45;;
25549;SDS011;13444;50.562;7.262;2023-05-14T02:25:24;12.63;;;9.20;;
25549;SDS011;13444;50.562;7.262;2023-05-14T02:27:49;11.20;;;8.50;;
25549;SDS011;13444;50.562;7.262;2023-05-14T02:30:15;12.75;;;8.93;;
25549;SDS011;13444;50.562;7.262;2023-05-14T02:32:40;15.90;;;10.20;;
25549;SDS011;13444;50.562;7.262;2023-05-14T02:35:06;14.43;;;10.45;;
25549;SDS011;13444;50.562;7.262;2023-05-14T02:37:32;13.68;;;9.38;;
25549;SDS011;13444;50.562;7.262;2023-05-14T02:39:58;18.90;;;10.63;;
25549;SDS011;13444;50.562;7.262;2023-05-14T02:42:24;19.85;;;12.13;;
25549;SDS011;13444;50.562;7.262;2023-05-14T02:44:50;12.57;;;10.38;;
25549;SDS011;13444;50.562;7.262;2023-05-14T02:47:16;15.27;;;10.98;;
25549;SDS011;13444;50.562;7.262;2023-05-14T02:49:41;10.30;;;9.23;;
25549;SDS011;13444;50.562;7.262;2023-05-14T02:52:07;11.75;;;8.85;;
25549;SDS011;13444;50.562;7.262;2023-05-14T02:54:33;12.15;;;10.00;;
25549;SDS011;13444;50.562;7.262;2023-05-14T02:56:58;17.98;;;10.40;;
25549;SDS011;13444;50.562;7.262;2023-05-14T02:59:24;11.60;;;10.00;;
25549;SDS011;13444;50.562;7.262;2023-05-14T03:01:51;13.45;;;11.32;;
25549;SDS011;13444;50.562;7.262;2023-05-14T03:04:16;13.63;;;10.02;;
25549;SDS011;13444;50.562;7.262;2023-05-14T03:06:42;15.93;;;10.30;;
25549;SDS011;13444;50.562;7.262;2023-05-14T03:09:07;15.00;;;10.82;;
25549;SDS011;13444;50.562;7.262;2023-05-14T03:11:33;12.77;;;10.75;;
25549;SDS011;13444;50.562;7.262;2023-05-14T03:13:58;15.32;;;9.73;;
25549;SDS011;13444;50.562;7.262;2023-05-14T03:16:24;33.88;;;11.45;;
25549;SDS011;13444;50.562;7.262;2023-05-14T03:18:50;13.50;;;9.60;;
25549;SDS011;13444;50.562;7.262;2023-05-14T03:21:16;9.45;;;8.32;;
25549;SDS011;13444;50.562;7.262;2023-05-14T03:23:41;25.85;;;10.27;;
25549;SDS011;13444;50.562;7.262;2023-05-14T03:26:07;14.52;;;9.10;;
25549;SDS011;13444;50.562;7.262;2023-05-14T03:28:32;27.85;;;10.10;;
25549;SDS011;13444;50.562;7.262;2023-05-14T03:30:58;23.77;;;10.07;;
25549;SDS011;13444;50.562;7.262;2023-05-14T03:33:23;24.52;;;10.02;;
25549;SDS011;13444;50.562;7.262;2023-05-14T03:35:49;26.13;;;9.52;;
25549;SDS011;13444;50.562;7.262;2023-05-14T03:38:15;23.58;;;9.90;;
25549;SDS011;13444;50.562;7.262;2023-05-14T03:40:41;56.28;;;10.55;;
25549;SDS011;13444;50.562;7.262;2023-05-14T03:43:06;11.60;;;9.45;;
25549;SDS011;13444;50.562;7.262;2023-05-14T03:45:32;10.55;;;8.77;;
25549;SDS011;13444;50.562;7.262;2023-05-14T03:47:57;15.32;;;10.07;;
25549;SDS011;13444;50.562;7.262;2023-05-14T03:50:23;12.93;;;10.13;;
25549;SDS011;13444;50.562;7.262;2023-05-14T03:52:49;11.13;;;9.27;;
25549;SDS011;13444;50.562;7.262;2023-05-14T03:55:16;15.75;;;12.10;;
25549;SDS011;13444;50.562;7.262;2023-05-14T03:57:43;15.82;;;11.32;;
25549;SDS011;13444;50.562;7.262;2023-05-14T04:00:09;19.10;;;10.88;;
25549;SDS011;13444;50.562;7.262;2023-05-14T04:02:35;16.05;;;10.68;;
25549;SDS011;13444;50.562;7.262;2023-05-14T04:05:00;10.85;;;9.57;;
25549;SDS011;13444;50.562;7.262;2023-05-14T04:07:26;10.40;;;9.30;;
25549;SDS011;13444;50.562;7.262;2023-05-14T04:09:51;20.25;;;10.38;;
25549;SDS011;13444;50.562;7.262;2023-05-14T04:12:17;12.38;;;10.40;;
25549;SDS011;13444;50.562;7.262;2023-05-14T04:14:42;12.77;;;10.80;;
25549;SDS011;13444;50.562;7.262;2023-05-14T04:17:08;11.88;;;9.82;;
25549;SDS011;13444;50.562;7.262;2023-05-14T04:19:33;10.10;;;8.77;;
25549;SDS011;13444;50.562;7.262;2023-05-14T04:21:59;12.02;;;9.73;;
25549;SDS011;13444;50.562;7.262;2023-05-14T04:24:24;11.25;;;9.25;;
25549;SDS011;13444;50.562;7.262;2023-05-14T04:26:50;13.43;;;10.50;;
25549;SDS011;13444;50.562;7.262;2023-05-14T04:29:15;13.38;;;9.88;;
25549;SDS011;13444;50.562;7.262;2023-05-14T04:31:41;11.93;;;9.30;;
25549;SDS011;13444;50.562;7.262;2023-05-14T04:34:07;19.75;;;10.10;;
25549;SDS011;13444;50.562;7.262;2023-05-14T04:36:32;55.97;;;11.85;;
25549;SDS011;13444;50.562;7.262;2023-05-14T04:38:58;11.07;;;9.27;;
25549;SDS011;13444;50.562;7.262;2023-05-14T04:41:23;44.90;;;10.52;;
25549;SDS011;13444;50.562;7.262;2023-05-14T04:43:49;11.85;;;9.35;;
25549;SDS011;13444;50.562;7.262;2023-05-14T04:46:14;20.13;;;10.45;;
25549;SDS011;13444;50.562;7.262;2023-05-14T04:48:40;10.88;;;8.85;;
25549;SDS011;13444;50.562;7.262;2023-05-14T04:51:06;25.08;;;9.65;;
25549;SDS011;13444;50.562;7.262;2023-05-14T04:53:31;17.80;;;10.43;;
25549;SDS011;13444;50.562;7.262;2023-05-14T04:55:57;12.75;;;10.18;;
25549;SDS011;13444;50.562;7.262;2023-05-14T04:58:22;13.10;;;9.27;;
25549;SDS011;13444;50.562;7.262;2023-05-14T05:00:48;21.15;;;9.75;;
25549;SDS011;13444;50.562;7.262;2023-05-14T05:03:14;36.70;;;11.40;;
25549;SDS011;13444;50.562;7.262;2023-05-14T05:05:39;13.13;;;10.10;;
25549;SDS011;13444;50.562;7.262;2023-05-14T05:08:05;11.57;;;9.65;;
25549;SDS011;13444;50.562;7.262;2023-05-14T05:10:30;13.52;;;10.20;;
25549;SDS011;13444;50.562;7.262;2023-05-14T05:12:56;65.82;;;12.52;;
25549;SDS011;13444;50.562;7.262;2023-05-14T05:15:21;31.92;;;11.68;;
25549;SDS011;13444;50.562;7.262;2023-05-14T05:17:47;16.40;;;11.13;;
25549;SDS011;13444;50.562;7.262;2023-05-14T05:20:13;20.08;;;11.48;;
25549;SDS011;13444;50.562;7.262;2023-05-14T05:22:38;26.67;;;12.50;;
25549;SDS011;13444;50.562;7.262;2023-05-14T05:25:04;18.75;;;11.23;;
25549;SDS011;13444;50.562;7.262;2023-05-14T05:27:30;15.48;;;11.27;;
25549;SDS011;13444;50.562;7.262;2023-05-14T05:29:57;13.77;;;10.07;;
25549;SDS011;13444;50.562;7.262;2023-05-14T05:32:23;15.25;;;11.52;;
25549;SDS011;13444;50.562;7.262;2023-05-14T05:34:49;16.25;;;12.13;;
25549;SDS011;13444;50.562;7.262;2023-05-14T05:37:15;14.90;;;11.45;;
25549;SDS011;13444;50.562;7.262;2023-05-14T05:39:41;15.02;;;11.55;;
25549;SDS011;13444;50.562;7.262;2023-05-14T05:42:07;13.85;;;11.35;;
25549;SDS011;13444;50.562;7.262;2023-05-14T05:44:32;16.67;;;12.45;;
25549;SDS011;13444;50.562;7.262;2023-05-14T05:46:58;13.52;;;11.52;;
25549;SDS011;13444;50.562;7.262;2023-05-14T05:49:23;18.27;;;12.57;;
25549;SDS011;13444;50.562;7.262;2023-05-14T05:51:50;16.13;;;11.95;;
25549;SDS011;13444;50.562;7.262;2023-05-14T05:54:15;14.68;;;11.98;;
25549;SDS011;13444;50.562;7.262;2023-05-14T05:56:41;16.10;;;11.85;;
25549;SDS011;13444;50.562;7.262;2023-05-14T05:59:06;18.08;;;12.20;;
25549;SDS011;13444;50.562;7.262;2023-05-14T06:01:32;15.45;;;11.45;;
25549;SDS011;13444;50.562;7.262;2023-05-14T06:03:57;16.98;;;11.70;;
25549;SDS011;13444;50.562;7.262;2023-05-14T06:06:23;17.10;;;12.32;;
25549;SDS011;13444;50.562;7.262;2023-05-14T06:08:48;14.73;;;10.88;;
25549;SDS011;13444;50.562;7.262;2023-05-14T06:11:14;17.05;;;11.02;;
25549;SDS011;13444;50.562;7.262;2023-05-14T06:13:40;14.15;;;11.10;;
25549;SDS011;13444;50.562;7.262;2023-05-14T06:16:06;16.30;;;12.10;;
25549;SDS011;13444;50.562;7.262;2023-05-14T06:18:31;15.32;;;12.23;;
25549;SDS011;13444;50.562;7.262;2023-05-14T06:20:57;13.75;;;10.93;;
25549;SDS011;13444;50.562;7.262;2023-05-14T06:23:24;17.67;;;12.40;;
25549;SDS011;13444;50.562;7.262;2023-05-14T06:25:50;16.70;;;11.13;;
25549;SDS011;13444;50.562;7.262;2023-05-14T06:28:16;16.60;;;12.85;;
25549;SDS011;13444;50.562;7.262;2023-05-14T06:30:42;23.45;;;14.95;;
25549;SDS011;13444;50.562;7.262;2023-05-14T06:33:07;29.65;;;19.35;;
25549;SDS011;13444;50.562;7.262;2023-05-14T06:35:32;22.67;;;16.50;;
25549;SDS011;13444;50.562;7.262;2023-05-14T06:37:58;20.63;;;15.20;;
25549;SDS011;13444;50.562;7.262;2023-05-14T06:40:24;19.77;;;13.95;;
25549;SDS011;13444;50.562;7.262;2023-05-14T06:42:49;18.73;;;13.43;;
25549;SDS011;13444;50.562;7.262;2023-05-14T06:45:15;22.63;;;15.63;;
25549;SDS011;13444;50.562;7.262;2023-05-14T06:47:41;17.75;;;12.88;;
25549;SDS011;13444;50.562;7.262;2023-05-14T06:50:06;17.85;;;12.05;;
25549;SDS011;13444;50.562;7.262;2023-05-14T06:52:32;14.77;;;11.45;;
25549;SDS011;13444;50.562;7.262;2023-05-14T06:54:58;15.65;;;11.32;;
25549;SDS011;13444;50.562;7.262;2023-05-14T06:57:23;14.27;;;11.48;;
25549;SDS011;13444;50.562;7.262;2023-05-14T06:59:49;13.52;;;10.93;;
25549;SDS011;13444;50.562;7.262;2023-05-14T07:02:14;13.80;;;10.32;;
25549;SDS011;13444;50.562;7.262;2023-05-14T07:04:40;14.55;;;10.25;;
25549;SDS011;13444;50.562;7.262;2023-05-14T07:07:05;11.70;;;8.90;;
25549;SDS011;13444;50.562;7.262;2023-05-14T07:09:31;14.35;;;10.73;;
25549;SDS011;13444;50.562;7.262;2023-05-14T07:11:57;15.60;;;12.00;;
25549;SDS011;13444;50.562;7.262;2023-05-14T07:14:22;12.63;;;10.07;;
25549;SDS011;13444;50.562;7.262;2023-05-14T07:16:48;14.93;;;10.32;;
25549;SDS011;13444;50.562;7.262;2023-05-14T07:19:13;12.98;;;10.13;;
25549;SDS011;13444;50.562;7.262;2023-05-14T07:21:39;11.02;;;9.93;;
25549;SDS011;13444;50.562;7.262;2023-05-14T07:24:04;11.23;;;9.27;;
25549;SDS011;13444;50.562;7.262;2023-05-14T07:26:30;12.50;;;9.40;;
25549;SDS011;13444;50.562;7.262;2023-05-14T07:28:56;9.32;;;8.15;;
25549;SDS011;13444;50.562;7.262;2023-05-14T07:31:21;11.25;;;9.75;;
25549;SDS011;13444;50.562;7.262;2023-05-14T07:33:47;11.05;;;9.18;;
25549;SDS011;13444;50.562;7.262;2023-05-14T07:36:12;9.63;;;7.82;;
25549;SDS011;13444;50.562;7.262;2023-05-14T07:38:38;10.48;;;9.07;;
25549;SDS011;13444;50.562;7.262;2023-05-14T07:41:04;12.75;;;8.68;;
25549;SDS011;13444;50.562;7.262;2023-05-14T07:43:29;10.20;;;8.50;;
25549;SDS011;13444;50.562;7.262;2023-05-14T07:45:55;10.45;;;7.88;;
25549;SDS011;13444;50.562;7.262;2023-05-14T07:48:21;9.90;;;8.30;;
25549;SDS011;13444;50.562;7.262;2023-05-14T07:50:47;8.50;;;7.57;;
25549;SDS011;13444;50.562;7.262;2023-05-14T07:53:13;10.68;;;7.65;;
25549;SDS011;13444;50.562;7.262;2023-05-14T07:55:38;11.02;;;7.85;;
25549;SDS011;13444;50.562;7.262;2023-05-14T07:58:04;11.60;;;7.68;;
25549;SDS011;13444;50.562;7.262;2023-05-14T08:00:30;9.25;;;8.23;;
25549;SDS011;13444;50.562;7.262;2023-05-14T08:02:56;11.98;;;7.80;;
25549;SDS011;13444;50.562;7.262;2023-05-14T08:05:21;9.85;;;7.00;;
25549;SDS011;13444;50.562;7.262;2023-05-14T08:07:47;7.18;;;6.47;;
25549;SDS011;13444;50.562;7.262;2023-05-14T08:10:12;9.88;;;5.53;;
25549;SDS011;13444;50.562;7.262;2023-05-14T08:12:38;9.23;;;6.63;;
25549;SDS011;13444;50.562;7.262;2023-05-14T08:15:04;8.90;;;6.10;;
25549;SDS011;13444;50.562;7.262;2023-05-14T08:17:31;7.65;;;5.00;;
25549;SDS011;13444;50.562;7.262;2023-05-14T08:19:57;7.93;;;5.55;;
25549;SDS011;13444;50.562;7.262;2023-05-14T08:22:22;7.15;;;5.35;;
25549;SDS011;13444;50.562;7.262;2023-05-14T08:24:48;7.53;;;5.50;;
25549;SDS011;13444;50.562;7.262;2023-05-14T08:27:13;5.90;;;4.30;;
25549;SDS011;13444;50.562;7.262;2023-05-14T08:29:40;4.80;;;4.30;;
25549;SDS011;13444;50.562;7.262;2023-05-14T08:32:06;8.45;;;4.80;;
25549;SDS011;13444;50.562;7.262;2023-05-14T08:34:32;5.28;;;4.72;;
25549;SDS011;13444;50.562;7.262;2023-05-14T08:36:58;6.22;;;4.00;;
25549;SDS011;13444;50.562;7.262;2023-05-14T08:39:23;5.45;;;4.00;;
25549;SDS011;13444;50.562;7.262;2023-05-14T08:41:49;5.93;;;4.35;;
25549;SDS011;13444;50.562;7.262;2023-05-14T08:44:19;5.35;;;3.90;;
25549;SDS011;13444;50.562;7.262;2023-05-14T08:46:50;6.70;;;4.13;;
25549;SDS011;13444;50.562;7.262;2023-05-14T08:49:24;4.40;;;4.00;;
25549;SDS011;13444;50.562;7.262;2023-05-14T08:52:10;5.93;;;4.15;;
25549;SDS011;13444;50.562;7.262;2023-05-14T08:54:36;4.40;;;3.63;;
25549;SDS011;13444;50.562;7.262;2023-05-14T08:57:02;4.65;;;4.05;;
25549;SDS011;13444;50.562;7.262;2023-05-14T08:59:28;5.78;;;4.38;;
25549;SDS011;13444;50.562;7.262;2023-05-14T09:01:55;6.47;;;4.40;;
25549;SDS011;13444;50.562;7.262;2023-05-14T09:04:22;4.75;;;4.00;;
25549;SDS011;13444;50.562;7.262;2023-05-14T09:06:50;4.45;;;4.00;;
25549;SDS011;13444;50.562;7.262;2023-05-14T09:09:23;4.63;;;4.15;;
25549;SDS011;13444;50.562;7.262;2023-05-14T09:11:50;4.43;;;3.47;;
25549;SDS011;13444;50.562;7.262;2023-05-14T09:14:17;4.70;;;4.03;;
25549;SDS011;13444;50.562;7.262;2023-05-14T09:16:46;4.03;;;3.70;;
25549;SDS011;13444;50.562;7.262;2023-05-14T09:19:13;5.95;;;4.05;;
25549;SDS011;13444;50.562;7.262;2023-05-14T09:21:40;6.18;;;4.57;;
25549;SDS011;13444;50.562;7.262;2023-05-14T09:24:06;5.88;;;3.92;;
25549;SDS011;13444;50.562;7.262;2023-05-14T09:26:32;6.00;;;3.50;;
25549;SDS011;13444;50.562;7.262;2023-05-14T09:28:59;5.65;;;3.83;;
25549;SDS011;13444;50.562;7.262;2023-05-14T09:31:31;5.00;;;3.58;;
25549;SDS011;13444;50.562;7.262;2023-05-14T09:33:58;4.18;;;3.78;;
25549;SDS011;13444;50.562;7.262;2023-05-14T09:36:24;6.38;;;3.60;;
25549;SDS011;13444;50.562;7.262;2023-05-14T09:38:56;3.55;;;3.22;;
25549;SDS011;13444;50.562;7.262;2023-05-14T09:41:22;5.30;;;4.22;;
25549;SDS011;13444;50.562;7.262;2023-05-14T09:43:48;5.25;;;3.78;;
25549;SDS011;13444;50.562;7.262;2023-05-14T09:46:15;7.80;;;3.80;;
25549;SDS011;13444;50.562;7.262;2023-05-14T09:48:40;7.20;;;3.50;;
25549;SDS011;13444;50.562;7.262;2023-05-14T09:51:06;4.78;;;3.50;;
25549;SDS011;13444;50.562;7.262;2023-05-14T09:53:33;8.38;;;4.07;;
25549;SDS011;13444;50.562;7.262;2023-05-14T09:55:59;4.00;;;3.03;;
25549;SDS011;13444;50.562;7.262;2023-05-14T09:58:25;4.82;;;3.38;;
25549;SDS011;13444;50.562;7.262;2023-05-14T10:00:50;4.45;;;3.30;;
25549;SDS011;13444;50.562;7.262;2023-05-14T10:03:17;4.32;;;3.17;;
25549;SDS011;13444;50.562;7.262;2023-05-14T10:05:44;5.93;;;3.72;;
25549;SDS011;13444;50.562;7.262;2023-05-14T10:08:13;5.10;;;3.45;;
25549;SDS011;13444;50.562;7.262;2023-05-14T10:10:48;6.15;;;3.58;;
25549;SDS011;13444;50.562;7.262;2023-05-14T10:13:29;6.03;;;3.22;;
25549;SDS011;13444;50.562;7.262;2023-05-14T10:15:59;4.80;;;3.20;;
25549;SDS011;13444;50.562;7.262;2023-05-14T10:18:33;5.10;;;3.28;;
25549;SDS011;13444;50.562;7.262;2023-05-14T10:21:04;4.18;;;3.63;;
25549;SDS011;13444;50.562;7.262;2023-05-14T10:23:31;3.83;;;3.28;;
25549;SDS011;13444;50.562;7.262;2023-05-14T10:25:58;3.42;;;3.05;;
25549;SDS011;13444;50.562;7.262;2023-05-14T10:28:25;5.43;;;3.40;;
25549;SDS011;13444;50.562;7.262;2023-05-14T10:30:51;3.10;;;2.72;;
25549;SDS011;13444;50.562;7.262;2023-05-14T10:33:18;5.15;;;2.83;;
25549;SDS011;13444;50.562;7.262;2023-05-14T10:35:51;4.82;;;3.17;;
25549;SDS011;13444;50.562;7.262;2023-05-14T10:38:22;5.20;;;3.25;;
25549;SDS011;13444;50.562;7.262;2023-05-14T10:40:58;2.88;;;2.55;;
25549;SDS011;13444;50.562;7.262;2023-05-14T10:43:26;7.30;;;2.78;;
25549;SDS011;13444;50.562;7.262;2023-05-14T10:45:55;4.35;;;2.80;;
25549;SDS011;13444;50.562;7.262;2023-05-14T10:48:22;3.85;;;2.92;;
25549;SDS011;13444;50.562;7.262;2023-05-14T10:50:49;7.22;;;2.88;;
25549;SDS011;13444;50.562;7.262;2023-05-14T10:53:15;3.45;;;2.55;;
25549;SDS011;13444;50.562;7.262;2023-05-14T10:55:41;4.20;;;3.22;;
25549;SDS011;13444;50.562;7.262;2023-05-14T10:58:08;2.83;;;2.53;;
25549;SDS011;13444;50.562;7.262;2023-05-14T11:00:35;4.35;;;2.53;;
25549;SDS011;13444;50.562;7.262;2023-05-14T11:03:02;3.70;;;2.30;;
25549;SDS011;13444;50.562;7.262;2023-05-14T11:05:29;3.78;;;2.83;;
25549;SDS011;13444;50.562;7.262;2023-05-14T11:07:56;2.80;;;2.42;;
25549;SDS011;13444;50.562;7.262;2023-05-14T11:10:22;7.88;;;2.65;;
25549;SDS011;13444;50.562;7.262;2023-05-14T11:12:53;3.92;;;2.60;;
25549;SDS011;13444;50.562;7.262;2023-05-14T11:15:22;3.10;;;2.70;;
25549;SDS011;13444;50.562;7.262;2023-05-14T11:17:49;2.85;;;2.38;;
25549;SDS011;13444;50.562;7.262;2023-05-14T11:20:15;3.47;;;2.92;;
25549;SDS011;13444;50.562;7.262;2023-05-14T11:22:42;2.95;;;2.50;;
25549;SDS011;13444;50.562;7.262;2023-05-14T11:25:08;3.17;;;2.33;;
25549;SDS011;13444;50.562;7.262;2023-05-14T11:27:37;4.25;;;2.63;;
25549;SDS011;13444;50.562;7.262;2023-05-14T11:30:03;2.78;;;2.35;;
25549;SDS011;13444;50.562;7.262;2023-05-14T11:32:32;3.72;;;2.13;;
25549;SDS011;13444;50.562;7.262;2023-05-14T11:34:57;5.32;;;2.60;;
25549;SDS011;13444;50.562;7.262;2023-05-14T11:37:23;3.42;;;2.03;;
25549;SDS011;13444;50.562;7.262;2023-05-14T11:39:49;4.53;;;2.65;;
25549;SDS011;13444;50.562;7.262;2023-05-14T11:42:16;3.22;;;2.50;;
25549;SDS011;13444;50.562;7.262;2023-05-14T11:44:45;2.45;;;2.25;;
25549;SDS011;13444;50.562;7.262;2023-05-14T11:47:12;5.63;;;2.70;;
25549;SDS011;13444;50.562;7.262;2023-05-14T11:49:38;4.28;;;2.75;;
25549;SDS011;13444;50.562;7.262;2023-05-14T11:52:05;3.55;;;2.70;;
25549;SDS011;13444;50.562;7.262;2023-05-14T11:54:32;2.40;;;2.17;;
25549;SDS011;13444;50.562;7.262;2023-05-14T11:56:59;3.03;;;2.00;;
25549;SDS011;13444;50.562;7.262;2023-05-14T11:59:26;3.80;;;2.30;;
25549;SDS011;13444;50.562;7.262;2023-05-14T12:01:53;3.67;;;2.30;;
25549;SDS011;13444;50.562;7.262;2023-05-14T12:04:19;2.38;;;2.13;;
25549;SDS011;13444;50.562;7.262;2023-05-14T12:06:49;3.28;;;2.22;;
25549;SDS011;13444;50.562;7.262;2023-05-14T12:09:16;2.45;;;2.05;;
25549;SDS011;13444;50.562;7.262;2023-05-14T12:11:46;2.28;;;2.08;;
25549;SDS011;13444;50.562;7.262;2023-05-14T12:14:17;2.85;;;2.50;;
25549;SDS011;13444;50.562;7.262;2023-05-14T12:16:44;4.30;;;2.13;;
25549;SDS011;13444;50.562;7.262;2023-05-14T12:19:10;2.88;;;1.75;;
25549;SDS011;13444;50.562;7.262;2023-05-14T12:21:38;2.30;;;1.80;;
25549;SDS011;13444;50.562;7.262;2023-05-14T12:24:11;3.80;;;2.15;;
25549;SDS011;13444;50.562;7.262;2023-05-14T12:26:38;3.42;;;2.20;;
25549;SDS011;13444;50.562;7.262;2023-05-14T12:29:04;2.58;;;2.30;;
25549;SDS011;13444;50.562;7.262;2023-05-14T12:31:33;2.90;;;2.10;;
25549;SDS011;13444;50.562;7.262;2023-05-14T12:33:59;2.63;;;2.20;;
25549;SDS011;13444;50.562;7.262;2023-05-14T12:36:24;2.92;;;2.20;;
25549;SDS011;13444;50.562;7.262;2023-05-14T12:38:58;2.50;;;2.05;;
25549;SDS011;13444;50.562;7.262;2023-05-14T12:41:25;2.50;;;2.20;;
25549;SDS011;13444;50.562;7.262;2023-05-14T12:43:51;3.50;;;2.72;;
25549;SDS011;13444;50.562;7.262;2023-05-14T12:46:17;4.50;;;2.45;;
25549;SDS011;13444;50.562;7.262;2023-05-14T12:48:43;5.15;;;2.15;;
25549;SDS011;13444;50.562;7.262;2023-05-14T12:51:09;5.03;;;2.50;;
25549;SDS011;13444;50.562;7.262;2023-05-14T12:53:35;4.07;;;2.38;;
25549;SDS011;13444;50.562;7.262;2023-05-14T12:56:00;4.15;;;2.53;;
25549;SDS011;13444;50.562;7.262;2023-05-14T12:58:26;4.55;;;2.17;;
25549;SDS011;13444;50.562;7.262;2023-05-14T13:00:51;3.50;;;2.20;;
25549;SDS011;13444;50.562;7.262;2023-05-14T13:03:17;4.75;;;2.20;;
25549;SDS011;13444;50.562;7.262;2023-05-14T13:05:42;3.33;;;2.50;;
25549;SDS011;13444;50.562;7.262;2023-05-14T13:08:08;3.97;;;2.40;;
25549;SDS011;13444;50.562;7.262;2023-05-14T13:10:34;4.18;;;2.65;;
25549;SDS011;13444;50.562;7.262;2023-05-14T13:12:59;3.00;;;2.22;;
25549;SDS011;13444;50.562;7.262;2023-05-14T13:15:26;5.15;;;2.10;;
25549;SDS011;13444;50.562;7.262;2023-05-14T13:17:52;3.13;;;2.35;;
25549;SDS011;13444;50.562;7.262;2023-05-14T13:20:17;4.40;;;2.58;;
25549;SDS011;13444;50.562;7.262;2023-05-14T13:22:43;4.75;;;2.30;;
25549;SDS011;13444;50.562;7.262;2023-05-14T13:25:09;6.05;;;2.97;;
25549;SDS011;13444;50.562;7.262;2023-05-14T13:27:34;3.25;;;2.58;;
25549;SDS011;13444;50.562;7.262;2023-05-14T13:30:01;3.70;;;2.58;;
25549;SDS011;13444;50.562;7.262;2023-05-14T13:32:27;4.60;;;2.30;;
25549;SDS011;13444;50.562;7.262;2023-05-14T13:34:53;5.70;;;3.13;;
25549;SDS011;13444;50.562;7.262;2023-05-14T13:37:19;2.47;;;2.28;;
25549;SDS011;13444;50.562;7.262;2023-05-14T13:39:44;4.38;;;2.60;;
25549;SDS011;13444;50.562;7.262;2023-05-14T13:42:10;9.50;;;2.72;;
25549;SDS011;13444;50.562;7.262;2023-05-14T13:44:35;2.88;;;2.58;;
25549;SDS011;13444;50.562;7.262;2023-05-14T13:47:01;3.42;;;2.88;;
25549;SDS011;13444;50.562;7.262;2023-05-14T13:49:27;4.47;;;2.97;;
25549;SDS011;13444;50.562;7.262;2023-05-14T13:51:52;3.78;;;2.70;;
25549;SDS011;13444;50.562;7.262;2023-05-14T13:54:17;3.10;;;2.78;;
25549;SDS011;13444;50.562;7.262;2023-05-14T13:56:43;4.40;;;2.60;;
25549;SDS011;13444;50.562;7.262;2023-05-14T13:59:08;4.82;;;2.70;;
25549;SDS011;13444;50.562;7.262;2023-05-14T14:01:35;3.67;;;2.67;;
25549;SDS011;13444;50.562;7.262;2023-05-14T14:04:00;3.90;;;2.60;;
25549;SDS011;13444;50.562;7.262;2023-05-14T14:06:26;5.50;;;2.85;;
25549;SDS011;13444;50.562;7.262;2023-05-14T14:08:51;4.18;;;3.05;;
25549;SDS011;13444;50.562;7.262;2023-05-14T14:11:17;3.17;;;2.80;;
25549;SDS011;13444;50.562;7.262;2023-05-14T14:13:43;7.15;;;2.97;;
25549;SDS011;13444;50.562;7.262;2023-05-14T14:16:08;4.28;;;2.80;;
25549;SDS011;13444;50.562;7.262;2023-05-14T14:18:34;3.47;;;2.90;;
25549;SDS011;13444;50.562;7.262;2023-05-14T14:21:01;6.53;;;2.55;;
25549;SDS011;13444;50.562;7.262;2023-05-14T14:23:26;4.53;;;2.88;;
25549;SDS011;13444;50.562;7.262;2023-05-14T14:25:52;4.40;;;3.13;;
25549;SDS011;13444;50.562;7.262;2023-05-14T14:28:17;4.88;;;2.70;;
25549;SDS011;13444;50.562;7.262;2023-05-14T14:30:43;4.40;;;2.38;;
25549;SDS011;13444;50.562;7.262;2023-05-14T14:33:09;4.00;;;2.50;;
25549;SDS011;13444;50.562;7.262;2023-05-14T14:35:35;4.88;;;2.75;;
25549;SDS011;13444;50.562;7.262;2023-05-14T14:38:01;4.68;;;2.13;;